sensor_id;sensor_type;location;lat;lon;timestamp;pressure;altitude;pressure_sealevel;temperature;humidity
35758;BME280;21879;50.110;18.900;2023-07-30T00:03:30;98055.90;;;20.88;67.26
35758;BME280;21879;50.110;18.900;2023-07-30T00:13:57;98051.83;;;20.88;67.38
35758;BME280;21879;50.110;18.900;2023-07-30T00:24:25;98050.64;;;20.94;67.57
35758;BME280;21879;50.110;18.900;2023-07-30T00:34:53;98051.46;;;20.95;67.62
35758;BME280;21879;50.110;18.900;2023-07-30T00:45:20;98066.46;;;20.95;67.69
35758;BME280;21879;50.110;18.900;2023-07-30T00:55:48;98067.23;;;21.03;67.72
35758;BME280;21879;50.110;18.900;2023-07-30T01:06:16;98066.43;;;21.07;67.50
35758;BME280;21879;50.110;18.900;2023-07-30T01:16:43;98071.92;;;21.09;67.05
35758;BME280;21879;50.110;18.900;2023-07-30T01:27:16;98082.39;;;21.17;66.96
35758;BME280;21879;50.110;18.900;2023-07-30T01:37:46;98088.91;;;21.17;66.64
35758;BME280;21879;50.110;18.900;2023-07-30T01:48:14;98096.16;;;21.03;66.55
35758;BME280;21879;50.110;18.900;2023-07-30T01:58:42;98093.61;;;20.96;66.00
35758;BME280;21879;50.110;18.900;2023-07-30T02:09:09;98090.96;;;20.67;65.38
35758;BME280;21879;50.110;18.900;2023-07-30T02:19:37;98088.98;;;20.61;65.28
35758;BME280;21879;50.110;18.900;2023-07-30T02:30:06;98088.54;;;20.69;64.78
35758;BME280;21879;50.110;18.900;2023-07-30T02:40:34;98092.08;;;20.69;64.33
35758;BME280;21879;50.110;18.900;2023-07-30T02:51:01;98106.20;;;20.72;64.09
35758;BME280;21879;50.110;18.900;2023-07-30T03:01:29;98105.42;;;20.67;63.99
35758;BME280;21879;50.110;18.900;2023-07-30T03:11:56;98112.95;;;20.56;64.00
35758;BME280;21879;50.110;18.900;2023-07-30T03:22:24;98114.70;;;20.35;63.79
35758;BME280;21879;50.110;18.900;2023-07-30T03:32:51;98120.20;;;20.29;64.11
35758;BME280;21879;50.110;18.900;2023-07-30T03:43:19;98131.27;;;20.17;64.03
35758;BME280;21879;50.110;18.900;2023-07-30T03:53:49;98139.04;;;20.14;64.17
35758;BME280;21879;50.110;18.900;2023-07-30T04:04:17;98134.91;;;20.12;64.28
35758;BME280;21879;50.110;18.900;2023-07-30T04:14:45;98136.16;;;20.03;64.38
35758;BME280;21879;50.110;18.900;2023-07-30T04:25:12;98142.69;;;19.96;64.63
35758;BME280;21879;50.110;18.900;2023-07-30T04:35:40;98165.85;;;19.64;64.58
35758;BME280;21879;50.110;18.900;2023-07-30T04:46:08;98162.32;;;19.44;65.45
35758;BME280;21879;50.110;18.900;2023-07-30T04:56:35;98158.75;;;19.61;66.26
35758;BME280;21879;50.110;18.900;2023-07-30T05:07:03;98170.96;;;20.18;66.35
35758;BME280;21879;50.110;18.900;2023-07-30T05:17:31;98171.63;;;20.53;65.86
35758;BME280;21879;50.110;18.900;2023-07-30T05:27:59;98185.23;;;20.88;66.15
35758;BME280;21879;50.110;18.900;2023-07-30T05:38:26;98196.24;;;21.20;65.56
35758;BME280;21879;50.110;18.900;2023-07-30T05:48:54;98199.32;;;21.36;65.37
35758;BME280;21879;50.110;18.900;2023-07-30T05:59:22;98200.28;;;22.03;65.55
35758;BME280;21879;50.110;18.900;2023-07-30T06:09:50;98197.66;;;22.76;63.89
35758;BME280;21879;50.110;18.900;2023-07-30T06:20:18;98196.88;;;23.34;62.10
35758;BME280;21879;50.110;18.900;2023-07-30T06:30:46;98196.73;;;23.82;60.20
35758;BME280;21879;50.110;18.900;2023-07-30T06:41:13;98201.84;;;24.30;58.70
35758;BME280;21879;50.110;18.900;2023-07-30T06:51:41;98188.87;;;24.68;56.99
35758;BME280;21879;50.110;18.900;2023-07-30T07:02:09;98193.61;;;24.90;55.78
35758;BME280;21879;50.110;18.900;2023-07-30T07:12:37;98197.27;;;25.00;54.94
35758;BME280;21879;50.110;18.900;2023-07-30T07:23:05;98189.70;;;25.36;54.38
35758;BME280;21879;50.110;18.900;2023-07-30T07:33:32;98185.54;;;25.82;53.62
35758;BME280;21879;50.110;18.900;2023-07-30T07:44:00;98181.19;;;25.95;52.70
35758;BME280;21879;50.110;18.900;2023-07-30T07:54:28;98171.39;;;25.79;52.27
35758;BME280;21879;50.110;18.900;2023-07-30T08:04:56;98180.83;;;25.63;51.83
35758;BME280;21879;50.110;18.900;2023-07-30T08:15:24;98186.52;;;25.63;51.84
35758;BME280;21879;50.110;18.900;2023-07-30T08:25:52;98186.59;;;25.69;51.76
35758;BME280;21879;50.110;18.900;2023-07-30T08:36:20;98196.70;;;25.74;51.88
35758;BME280;21879;50.110;18.900;2023-07-30T08:46:50;98206.75;;;25.71;51.76
35758;BME280;21879;50.110;18.900;2023-07-30T08:57:21;98208.98;;;25.52;51.36
35758;BME280;21879;50.110;18.900;2023-07-30T09:07:50;98210.30;;;25.39;51.71
35758;BME280;21879;50.110;18.900;2023-07-30T09:18:19;98212.44;;;25.28;51.67
35758;BME280;21879;50.110;18.900;2023-07-30T09:28:47;98206.57;;;25.19;52.30
35758;BME280;21879;50.110;18.900;2023-07-30T09:39:21;98196.77;;;25.16;51.95
35758;BME280;21879;50.110;18.900;2023-07-30T09:49:49;98195.69;;;25.07;51.37
35758;BME280;21879;50.110;18.900;2023-07-30T10:00:18;98192.61;;;25.05;51.29
35758;BME280;21879;50.110;18.900;2023-07-30T10:10:47;98187.09;;;24.96;51.42
35758;BME280;21879;50.110;18.900;2023-07-30T10:21:23;98182.10;;;24.96;51.70
35758;BME280;21879;50.110;18.900;2023-07-30T10:31:54;98178.03;;;25.00;51.72
35758;BME280;21879;50.110;18.900;2023-07-30T10:42:23;98171.46;;;25.05;52.04
35758;BME280;21879;50.110;18.900;2023-07-30T10:52:51;98168.48;;;25.12;51.25
35758;BME280;21879;50.110;18.900;2023-07-30T11:03:20;98173.23;;;25.22;51.02
35758;BME280;21879;50.110;18.900;2023-07-30T11:13:48;98176.21;;;25.18;51.02
35758;BME280;21879;50.110;18.900;2023-07-30T11:24:16;98176.27;;;25.05;51.87
35758;BME280;21879;50.110;18.900;2023-07-30T11:34:45;98174.31;;;24.98;52.18
35758;BME280;21879;50.110;18.900;2023-07-30T11:45:20;98167.47;;;24.92;52.32
35758;BME280;21879;50.110;18.900;2023-07-30T11:55:48;98161.09;;;24.94;52.03
35758;BME280;21879;50.110;18.900;2023-07-30T12:06:16;98161.80;;;24.97;51.87
35758;BME280;21879;50.110;18.900;2023-07-30T12:16:43;98160.27;;;24.96;51.61
35758;BME280;21879;50.110;18.900;2023-07-30T12:27:11;98161.69;;;24.89;51.62
35758;BME280;21879;50.110;18.900;2023-07-30T12:37:39;98154.28;;;24.83;51.86
35758;BME280;21879;50.110;18.900;2023-07-30T12:48:06;98151.49;;;24.85;51.42
35758;BME280;21879;50.110;18.900;2023-07-30T12:58:34;98144.70;;;24.97;51.55
35758;BME280;21879;50.110;18.900;2023-07-30T13:09:02;98145.77;;;25.03;51.75
35758;BME280;21879;50.110;18.900;2023-07-30T13:19:29;98143.52;;;25.07;51.35
35758;BME280;21879;50.110;18.900;2023-07-30T13:29:59;98134.15;;;25.09;51.20
35758;BME280;21879;50.110;18.900;2023-07-30T13:40:27;98123.83;;;25.25;50.81
35758;BME280;21879;50.110;18.900;2023-07-30T13:50:54;98117.42;;;25.30;50.73
35758;BME280;21879;50.110;18.900;2023-07-30T14:01:22;98108.19;;;25.30;49.77
35758;BME280;21879;50.110;18.900;2023-07-30T14:11:49;98108.77;;;25.25;48.97
35758;BME280;21879;50.110;18.900;2023-07-30T14:22:17;98102.52;;;25.20;48.45
35758;BME280;21879;50.110;18.900;2023-07-30T14:32:45;98098.55;;;24.96;48.71
35758;BME280;21879;50.110;18.900;2023-07-30T14:43:13;98099.22;;;24.88;49.64
35758;BME280;21879;50.110;18.900;2023-07-30T14:53:41;98090.89;;;24.80;49.77
35758;BME280;21879;50.110;18.900;2023-07-30T15:04:10;98092.30;;;24.73;50.54
35758;BME280;21879;50.110;18.900;2023-07-30T15:14:38;98091.83;;;24.77;51.26
35758;BME280;21879;50.110;18.900;2023-07-30T15:25:07;98093.61;;;24.72;51.66
35758;BME280;21879;50.110;18.900;2023-07-30T15:35:34;98089.27;;;24.64;51.77
35758;BME280;21879;50.110;18.900;2023-07-30T15:46:04;98088.36;;;24.69;51.44
35758;BME280;21879;50.110;18.900;2023-07-30T15:56:33;98083.93;;;24.69;50.86
35758;BME280;21879;50.110;18.900;2023-07-30T16:07:01;98089.35;;;24.54;51.30
35758;BME280;21879;50.110;18.900;2023-07-30T16:17:31;98095.77;;;24.47;51.77
35758;BME280;21879;50.110;18.900;2023-07-30T16:27:59;98101.45;;;24.47;51.92
35758;BME280;21879;50.110;18.900;2023-07-30T16:38:27;98104.22;;;24.40;51.78
35758;BME280;21879;50.110;18.900;2023-07-30T16:48:54;98120.20;;;24.33;52.03
35758;BME280;21879;50.110;18.900;2023-07-30T16:59:22;98121.84;;;24.18;51.75
35758;BME280;21879;50.110;18.900;2023-07-30T17:09:50;98117.60;;;24.10;52.27
35758;BME280;21879;50.110;18.900;2023-07-30T17:20:18;98130.84;;;24.07;52.90
35758;BME280;21879;50.110;18.900;2023-07-30T17:30:45;98135.34;;;23.99;53.09
35758;BME280;21879;50.110;18.900;2023-07-30T17:41:14;98140.60;;;23.90;53.23
35758;BME280;21879;50.110;18.900;2023-07-30T17:51:41;98162.08;;;23.76;53.19
35758;BME280;21879;50.110;18.900;2023-07-30T18:02:09;98176.92;;;23.61;52.96
35758;BME280;21879;50.110;18.900;2023-07-30T18:12:37;98181.89;;;23.51;52.87
35758;BME280;21879;50.110;18.900;2023-07-30T18:23:05;98174.48;;;23.42;52.91
35758;BME280;21879;50.110;18.900;2023-07-30T18:33:33;98172.45;;;23.34;53.64
35758;BME280;21879;50.110;18.900;2023-07-30T18:44:01;98168.98;;;23.15;54.61
35758;BME280;21879;50.110;18.900;2023-07-30T18:54:28;98174.99;;;22.94;55.04
35758;BME280;21879;50.110;18.900;2023-07-30T19:04:56;98196.77;;;22.68;55.47
35758;BME280;21879;50.110;18.900;2023-07-30T19:15:24;98205.41;;;22.42;55.95
35758;BME280;21879;50.110;18.900;2023-07-30T19:25:55;98223.94;;;22.27;56.52
35758;BME280;21879;50.110;18.900;2023-07-30T19:36:22;98234.01;;;22.10;56.96
35758;BME280;21879;50.110;18.900;2023-07-30T19:46:50;98242.38;;;21.95;57.23
35758;BME280;21879;50.110;18.900;2023-07-30T19:57:18;98235.21;;;21.74;57.16
35758;BME280;21879;50.110;18.900;2023-07-30T20:07:46;98231.64;;;21.61;57.59
35758;BME280;21879;50.110;18.900;2023-07-30T20:18:13;98243.95;;;21.53;57.63
35758;BME280;21879;50.110;18.900;2023-07-30T20:28:43;98249.75;;;21.39;57.75
35758;BME280;21879;50.110;18.900;2023-07-30T20:39:11;98243.41;;;21.15;58.27
35758;BME280;21879;50.110;18.900;2023-07-30T20:49:39;98247.67;;;21.02;58.69
35758;BME280;21879;50.110;18.900;2023-07-30T21:00:09;98242.27;;;20.95;59.12
35758;BME280;21879;50.110;18.900;2023-07-30T21:10:37;98256.36;;;20.90;59.45
35758;BME280;21879;50.110;18.900;2023-07-30T21:21:04;98246.61;;;20.81;59.49
35758;BME280;21879;50.110;18.900;2023-07-30T21:31:35;98245.07;;;20.75;59.82
35758;BME280;21879;50.110;18.900;2023-07-30T21:42:11;98240.77;;;20.73;59.89
35758;BME280;21879;50.110;18.900;2023-07-30T21:52:39;98250.20;;;20.71;60.12
35758;BME280;21879;50.110;18.900;2023-07-30T22:03:09;98244.02;;;20.69;60.17
35758;BME280;21879;50.110;18.900;2023-07-30T22:13:36;98251.23;;;20.66;60.09
35758;BME280;21879;50.110;18.900;2023-07-30T22:24:04;98255.92;;;20.58;60.35
35758;BME280;21879;50.110;18.900;2023-07-30T22:34:32;98262.74;;;20.53;60.75
35758;BME280;21879;50.110;18.900;2023-07-30T22:45:01;98268.04;;;20.59;61.04
35758;BME280;21879;50.110;18.900;2023-07-30T22:55:29;98258.81;;;20.63;61.02
35758;BME280;21879;50.110;18.900;2023-07-30T23:05:57;98261.22;;;20.68;61.34
35758;BME280;21879;50.110;18.900;2023-07-30T23:16:24;98273.91;;;20.64;61.26
35758;BME280;21879;50.110;18.900;2023-07-30T23:26:52;98283.36;;;20.47;61.38
35758;BME280;21879;50.110;18.900;2023-07-30T23:37:20;98279.16;;;20.40;61.72
35758;BME280;21879;50.110;18.900;2023-07-30T23:47:47;98281.51;;;20.45;61.99
35758;BME280;21879;50.110;18.900;2023-07-30T23:58:16;98285.27;;;20.48;61.92
